Wilmington, North Carolina
Current Conditions -  °F | °C
As of 8:53 AM on Saturday 25 Oct 2014 (Local Time) from KILM Reporting Station
Clear Clear  
Wind Chill: 55°   Ceiling: Unl
Heat Index: 55°   Visibility: 10mi
Dew Point: 50°   Wind: 5mph
Humidity: 83%   Direction: 300°WNW
Pressure: 30.01"   Gusts: NA
Location:  34.24°N, 77.94°W
Report Text: KILM 251253Z AUTO 30004KT 10SM CLR 13/10 A3001 RMK AO2 SLP162 T01280100
Loading
Personal Weather Stations






























Interactive Weather Map
Tropical Storm Tracking
New forecast layout! Learn more

10-Day Weather Forecast

Advertisements
Track Severe Weather on mobile